Weather search by city/station or by Location Indicator (LI)

Please do one of the following:
a) Search the weather station by station, city or country name and click Search button
b) Enter the four-character Location Indicator (i.e. EFHK = Helsinki) and click Submit button

a) Search the station:   

b) Location Indicator:  

The ICAO Location Indicator code is explained here.

METAR = EFHK 131850Z 07008KT 030V090 9999 OVC012 M03/M05 Q1034 NOSIG

STATIONEFHK
NAMEHelsinki/Vantaa Arpt, --, FI
OBSERVED13.12.2018 20:50 (13.12.2018 18:50 UTC), 20 min ago
TEMPERATURE-3.0°C ( 27°F)
WINDCHILL-8.1 °C (17 °F)
WINDENE (70 degrees) at 9 MPH (8 knots; 4.1 m/s)
HUMIDITY86%
PRESSURE1033.9 hPa